SBGLSBSC

Guest
Details From SBGL - Galeao Antonio Carlos Jombim
To SBSC - SANTA CRUZ
Flight Number -
Tags generated
Created
Modified
Stats Distance 29 nm / 53 km
Max Altitude 1,900 ft / 579 m
Waypoints 3
Social Downloads 1
Likes 0
Share VATSIM

Download

Looking for another format? Having issues loading an existing format? Contact us
Advertisement - Login to hide

Notes

Basic altitude profile: - Ascent Rate: 2500ft/min - Ascent Speed: 250kts - Cruise Altitude: 35000ft - Cruise Speed: 420kts - Descent Rate: 1500ft/min - Descent Speed: 250kts Options: - Use NATs: yes - Use PACOTS: yes - Use low airways: yes - Use high airways: yes

Route

SBGL CAX SBSC

ID Type Via Altitude Latitude Longitude Leg Dist Tot Dist Heading (true) Name
O SBGL APT - 0 ft / 0 m -22.80894˚ -43.24368˚ - 0 nm - Galeao Antonio Carlos Jombim
CAX VOR - 1,900 ft / 579 m -22.77633˚ -43.33317˚ 5 nm 5 nm 292° / 292° CAXIAS VOR-DME
O SBSC APT - 0 ft / 0 m -22.93249˚ -43.71909˚ 23 nm 28 nm 246° / 246° SANTA CRUZ

Altitude Profile

Advertisement - Login to hide

SBGL

Details ICAO SBGL (GIG)
Name Galeao Antonio Carlos Jombim
Region Brazil
Timezone America/Sao_Paulo (UTC-3.0)
Stats Elevation 28 ft / 9 m (AMSL)
Location -22.808938° -43.243681°
Runways 2
Magnetic Variation 22.810° W

METAR

SBGL 211900Z 12009KT CAVOK 23/09 Q1016

Decode

TAF

TAF SBGL 211430Z 2118/2224 20015KT CAVOK TN15/2209Z TX26/2216Z BECMG 2119/2121 17010KT BECMG 2122/2124 32005KT BECMG 2204/2206 35005KT 8000 NSC BECMG 2210/2212 02005KT CAVOK BECMG 2213/2215 10010KT BECMG 2216/2218 15015KT FEW030 BECMG 2221/2224 10010KT CAVOK RMK PGS

Decode

Departure Runways

ID Width Length Bearing (true) Bearing (mag) Surface Threshold Offset Overrun Length
10 148 ft / 45 m 13,128 ft / 4,001 m 74.39° 97.20° Concrete 0 ft / 0 m 175 ft / 53 m
15 154 ft / 47 m 10,418 ft / 3,175 m 125.78° 148.59° Asphalt 0 ft / 0 m 185 ft / 56 m
28 148 ft / 45 m 13,128 ft / 4,001 m 254.38° 277.19° Concrete 0 ft / 0 m 175 ft / 53 m
33 154 ft / 47 m 10,418 ft / 3,175 m 305.78° 328.59° Asphalt 0 ft / 0 m 185 ft / 56 m

SBSC

Details ICAO SBSC (STU)
Name SANTA CRUZ
Region Brazil
Timezone America/Sao_Paulo (UTC-3.0)
Stats Elevation 10 ft / 3 m (AMSL)
Location -22.932489° -43.719090°
Runways 1
Magnetic Variation 22.630° W

METAR

SBSC 211900Z 23010KT CAVOK 23/13 Q1016

Decode

TAF

TAF SBSC 211415Z 2118/2206 06006KT 9999 FEW020 TX28/2118Z TN18/2205Z BECMG 2119/2121 28005KT CAVOK RMK PDV

Decode

Destination Runways

ID Width Length Bearing (true) Bearing (mag) Surface Threshold Offset Overrun Length
05 148 ft / 45 m 9,039 ft / 2,755 m 24.13° 46.76° Asphalt 0 ft / 0 m 1,145 ft / 349 m
23 148 ft / 45 m 9,039 ft / 2,755 m 204.12° 226.75° Asphalt 0 ft / 0 m 1,145 ft / 349 m

Popular Alternatives